Nearby METAR Reports

 

KCMA - Camarillo, California, USA
Distance from station: WSW 4mi, 7km
Updated: Wed, 16-Jan-2019 12:55pm PST
Overcast
Overcast
 Wind from E
Wind: E 10 mph , 17 km/h
Temperature: 66°F , 19°C
Dew Point: 55°F , 13°C
Humidity: 68%
Barometer: 30.11 inHg , 1019.6 hPa
Clouds: Overcast
Visibility: 10 miles , 16 km
Cloud details: Few Clouds 2200 ft
Mostly cloudy 3500 ft
Overcast 5500 ft
2019/01/16 20:55 KCMA 162055Z 09009KT 10SM FEW022 BKN035 OVC055 19/13 A3011 RMK AO2 SLP205 60000 T01890133 58021
KNTD - Point Mugu Nas, California, USA
Distance from station: SSW 9mi, 15km
Updated: Wed, 16-Jan-2019 12:57pm PST
Mostly cloudy
Mostly cloudy
 Wind from SE
Wind: SE 17 mph , 28 km/h
Temperature: 63°F , 17°C
Dew Point: 57°F , 14°C
Humidity: 83%
Barometer: 30.12 inHg , 1020 hPa
Clouds: Mostly cloudy
Visibility: 10 miles , 16 km
Cloud details: Few Clouds 4100 ft
Partly cloudy 8000 ft
Mostly cloudy 19000 ft
Mostly cloudy 28000 ft
2019/01/16 20:57 KNTD 162057Z 14015KT 10SM FEW041 SCT080 BKN190 BKN280 17/14 A3012 RMK AO2 SLP200 T01720139 58023 $
 
KOXR - Oxnard, California, USA
Distance from station: WSW 10mi, 16km
Updated: Wed, 16-Jan-2019 12:51pm PST
Overcast
Overcast
 Wind from SE
Wind: SE 6 mph , 9 km/h
Temperature: 64°F , 18°C
Dew Point: 57°F , 14°C
Humidity: 78%
Barometer: 30.12 inHg , 1020 hPa
Clouds: Overcast
Visibility: 10 miles , 16 km
Cloud details: Overcast 1900 ft
2019/01/16 20:51 KOXR 162051Z 14005KT 10SM OVC019 18/14 A3012 RMK AO2 SLP199 T01780144 58020
KVNY - Van Nuys, California, USA
Distance from station: E 31mi, 50km
Updated: Wed, 16-Jan-2019 1:14pm PST
Light rain, Mist, Overcast
Light rain, Mist, Overcast
 Wind from ESE
Wind: ESE 10 mph , 17 km/h
Temperature: 59°F , 15°C
Dew Point: 55°F , 13°C
Humidity: 88%
Barometer: 30.13 inHg , 1020.3 hPa
Summary: Light rain, Mist
Clouds: Overcast
Visibility: 1 1/2 miles , 2.4 km
Cloud details: Mostly cloudy 700 ft
Overcast 1200 ft
2019/01/16 21:14 KVNY 162114Z 12009KT 1 1/2SM R16R/4500VP6000FT -RA BR BKN007 OVC012 15/13 A3013 RMK AO2 P0002 T01500133
 
KWHP - La / Whiteman, California, USA
Distance from station: E 35mi, 56km
Updated: Wed, 16-Jan-2019 12:55pm PST
Overcast
Overcast
 Wind from E
Wind: E 12 mph , 19 km/h
Temperature: 57°F , 14°C
Dew Point: 57°F , 14°C
Humidity: 100%
Barometer: 30.17 inHg , 1021.7 hPa
Clouds: Overcast
Visibility: 10 miles , 16 km
Cloud details: Overcast 2100 ft
2019/01/16 20:55 KWHP 162055Z 10010KT 10SM OVC021 14/14 A3017
KSMO - Santa Monica, California, USA
Distance from station: ESE 36mi, 58km
Updated: Wed, 16-Jan-2019 12:51pm PST
Mist, Overcast
Mist, Overcast
 Wind from ESE
Wind: ESE 10 mph , 17 km/h
Temperature: 63°F , 17°C
Dew Point: 57°F , 14°C
Humidity: 83%
Barometer: 30.14 inHg , 1020.7 hPa
Summary: Mist
Clouds: Overcast
Visibility: 2 miles , 3 km
Cloud details: Overcast 400 ft
2019/01/16 20:51 KSMO 162051Z 12009KT 2SM BR OVC004 17/14 A3014 RMK AO2 RAE46 CIG 003V009 SLP206 VIS S-W 3 P0002 60005 T01670144 58020
 
KBUR - Burbank, California, USA
Distance from station: E 38mi, 61km
Updated: Wed, 16-Jan-2019 12:53pm PST
Light rain, Mist, Overcast
Light rain, Mist, Overcast
 Wind from SE
Wind: SE 14 mph , 22 km/h, Gust: 24 mph , 39 km/h
Temperature: 57°F , 14°C
Dew Point: 55°F , 13°C
Humidity: 94%
Barometer: 30.14 inHg , 1020.7 hPa
Summary: Light rain, Mist
Clouds: Overcast
Visibility: 2 1/2 miles , 4 km
Cloud details: Mostly cloudy 500 ft
Overcast 1200 ft
2019/01/16 20:53 KBUR 162053Z 13012G21KT 2 1/2SM -RA BR BKN005 OVC012 14/13 A3014 RMK AO2 SLP198 P0001 60001 T01390133 58016
KSDB - Sandberg, California, USA
Distance from station: NNE 40mi, 64km
Updated: Wed, 16-Jan-2019 12:53pm PST
Fog, Overcast
Fog, Overcast
 Wind from SSW
Wind: SSW 20 mph , 31 km/h, Gust: 33 mph , 54 km/h
Temperature: 46°F , 8°C
Wind Chill: 38°F , 3°C
Dew Point: 46°F , 8°C
Humidity: 100%
Barometer: 30.13 inHg , 1020.3 hPa
Summary: Fog
Clouds: Overcast
Visibility: less than 1/4 mile , 0.4 km
Cloud details: Overcast 100 ft
2019/01/16 20:53 KSDB 162053Z AUTO 20017G29KT M1/4SM FG VV001 08/08 A3013 RMK AO2 PK WND 18032/2024 RAE42 SLP186 P0000 60008 T00830083 58011
 
KLAX - Los Angeles, California, USA
Distance from station: ESE 42mi, 68km
Updated: Wed, 16-Jan-2019 12:53pm PST
Light rain, Mist, Overcast
Light rain, Mist, Overcast
 Wind from ESE
Wind: ESE 14 mph , 22 km/h
Temperature: 59°F , 15°C
Dew Point: 57°F , 14°C
Humidity: 94%
Barometer: 30.14 inHg , 1020.7 hPa
Summary: Light rain, Mist
Clouds: Overcast
Visibility: 2 miles , 3 km
Cloud details: Overcast 700 ft
2019/01/16 20:53 KLAX 162053Z 12012KT 2SM -RA BR OVC007 15/14 A3014 RMK AO2 SLP205 VIS 1V2 1/2 P0001 60004 T01500144 58018
KCQT - Los Angeles, California, USA
Distance from station: ESE 45mi, 73km
Updated: Wed, 16-Jan-2019 1:01pm PST
Light rain, Mist, Overcast
Light rain, Mist, Overcast
 Wind from ESE
Wind: ESE 7 mph , 11 km/h
Temperature: 59°F , 15°C
Dew Point: 57°F , 14°C
Humidity: 94%
Barometer: 30.14 inHg , 1020.7 hPa
Summary: Light rain, Mist
Clouds: Overcast
Visibility: 1 1/2 miles , 2.4 km
Cloud details: Overcast 700 ft
2019/01/16 21:01 KCQT 162101Z AUTO 12006KT 1 1/2SM -RA BR OVC007 15/14 A3014 RMK AO2 CIG 004V011 P0000 T01500139
 
KHHR - Hawthorne, California, USA
Distance from station: ESE 45mi, 73km
Updated: Wed, 16-Jan-2019 1:12pm PST
Mist, Overcast
Mist, Overcast
 Wind from SE
Wind: SE 12 mph , 19 km/h
Temperature: 59°F , 15°C
Dew Point: 57°F , 14°C
Humidity: 94%
Barometer: 30.14 inHg , 1020.7 hPa
Summary: Mist
Clouds: Overcast
Visibility: 4 miles , 6 km
Cloud details: Overcast 600 ft
2019/01/16 21:12 KHHR 162112Z 13010KT 4SM BR OVC006 15/14 A3014 RMK AO2 RAB2054E05 P0000 T01500144
KSBA - Santa Barbara, California, USA
Distance from station: WNW 49mi, 79km
Updated: Wed, 16-Jan-2019 12:53pm PST
Overcast
Overcast
 Wind from ESE
Wind: ESE 10 mph , 17 km/h
Temperature: 61°F , 16°C
Dew Point: 55°F , 13°C
Humidity: 83%
Barometer: 30.10 inHg , 1019.3 hPa
Clouds: Overcast
Visibility: 10 miles , 16 km
Cloud details: Mostly cloudy 2700 ft
Overcast 3300 ft
2019/01/16 20:53 KSBA 162053Z 12009KT 10SM BKN027 OVC033 16/13 A3010 RMK AO2 SLP192 60000 T01560128 58015